Terminal Aerodrome Forecast
Issued by NWS Lake Charles, LA

Home | Current Version | Previous Version | Text Only | Print | Product List | Glossary On
Versions: 1 2 3 4 5 6 7 8 9 10 11 12 13 14 15 16 17 18 19 20 21 22 23 24 25
000
FTUS44 KLCH 192321
TAFLFT
TAF
KLFT 192321Z 2000/2024 20003KT P6SM VCSH FEW100
     FM200200 20004KT 6SM BR BKN015 OVC025
      TEMPO 2002/2005 3SM BR BKN007
     FM200500 21003KT 1SM BR OVC004
     FM201500 22005KT 4SM BR BKN007 OVC020
     FM201600 22008KT P6SM SCT025 SCT250=

USA.gov is the U.S. government's official web portal to all federal, state and local government web resources and services.